Time;durP1;ratioP1;P1;durP2;ratioP2;P2;SDS_P1;SDS_P2;PMS_P1;PMS_P2;Temp;Humidity;BMP_temperature;BMP_pressure;BME280_temperature;BME280_humidity;BME280_pressure;Samples;Min_cycle;Max_cycle;Signal;HPM_P1;HPM_P2
2022/02/09 00:03:40;;;;;;;3.30;1.20;;;6.00;99.90;;;;;;5047713;28;20086;-88
2022/02/09 00:06:16;;;;;;;2.67;0.90;;;6.00;99.90;;;;;;5029756;28;20045;-88
2022/02/09 00:08:45;;;;;;;5.13;0.90;;;6.00;99.90;;;;;;5033268;28;20053;-87
2022/02/09 00:11:16;;;;;;;4.50;1.20;;;6.00;99.90;;;;;;5030040;28;20040;-87
2022/02/09 00:13:54;;;;;;;2.63;1.13;;;6.00;99.90;;;;;;5030383;28;20047;-87
2022/02/09 00:24:17;;;;;;;3.83;1.17;;;5.90;99.90;;;;;;5044101;28;20022;-88
2022/02/09 00:37:29;;;;;;;4.63;1.40;;;5.90;99.90;;;;;;5047115;28;20056;-88
2022/02/09 00:43:11;;;;;;;4.13;1.20;;;6.00;99.90;;;;;;5044562;28;20029;-88
2022/02/09 02:02:23;;;;;;;7.10;1.70;;;5.90;99.90;;;;;;4951809;28;20509;-86
2022/02/09 02:05:40;;;;;;;4.37;1.07;;;5.90;99.90;;;;;;4967382;28;20722;-86
2022/02/09 02:08:45;;;;;;;7.57;2.83;;;5.80;99.90;;;;;;5008419;28;20033;-86
2022/02/09 02:14:08;;;;;;;2.20;0.80;;;5.80;99.90;;;;;;5010101;28;20032;-86
2022/02/09 02:24:19;;;;;;;4.80;1.03;;;5.80;99.90;;;;;;5006954;28;20030;-86
2022/02/09 03:15:05;;;;;;;3.30;0.90;;;5.80;99.90;;;;;;4998833;28;20029;-86
2022/02/09 03:17:38;;;;;;;5.40;0.90;;;5.80;99.90;;;;;;4999201;28;20065;-87
2022/02/09 03:26:47;;;;;;;3.00;0.73;;;5.80;99.90;;;;;;5003260;28;20120;-86
2022/02/09 03:58:30;;;;;;;1.47;0.60;;;5.80;99.90;;;;;;4974623;28;20093;-85
2022/02/09 04:01:07;;;;;;;3.80;0.53;;;5.80;99.90;;;;;;4983292;28;20121;-86
2022/02/09 04:03:38;;;;;;;2.03;0.73;;;5.80;99.90;;;;;;4998813;28;20116;-86
2022/02/09 04:06:15;;;;;;;2.13;0.80;;;5.80;99.90;;;;;;4995940;28;20711;-86
2022/02/09 04:12:05;;;;;;;1.73;0.70;;;5.80;99.90;;;;;;5000221;28;20042;-87
2022/02/09 04:23:13;;;;;;;3.37;0.97;;;5.80;99.90;;;;;;5042690;28;20041;-86
2022/02/09 04:36:52;;;;;;;1.13;0.50;;;5.80;99.90;;;;;;5034602;28;20044;-87
2022/02/09 04:39:34;;;;;;;2.77;0.90;;;5.80;99.90;;;;;;5036514;28;20045;-86
2022/02/09 04:57:13;;;;;;;3.10;0.90;;;5.70;99.90;;;;;;4968324;28;20027;-86
2022/02/09 05:26:50;;;;;;;2.53;0.73;;;5.50;99.90;;;;;;5034739;28;20025;-87
2022/02/09 05:29:19;;;;;;;3.33;0.93;;;5.50;99.90;;;;;;5031822;28;20026;-86
2022/02/09 05:31:47;;;;;;;3.47;0.83;;;5.50;99.90;;;;;;5033539;28;20616;-87
2022/02/09 05:34:21;;;;;;;3.07;0.70;;;5.50;99.90;;;;;;5033783;28;20516;-87
2022/02/09 05:37:00;;;;;;;2.40;0.90;;;5.50;99.90;;;;;;5035600;28;20490;-86
2022/02/09 05:39:41;;;;;;;4.33;1.00;;;5.40;99.90;;;;;;5030822;28;20070;-87
2022/02/09 05:42:14;;;;;;;3.77;0.90;;;5.50;99.90;;;;;;5035261;28;20566;-86
2022/02/09 05:44:49;;;;;;;2.40;0.70;;;5.50;99.90;;;;;;5034600;28;20093;-85
2022/02/09 05:56:43;;;;;;;3.87;0.97;;;5.50;99.90;;;;;;5012223;28;20108;-86
2022/02/09 06:01:48;;;;;;;3.07;0.77;;;5.60;99.90;;;;;;5034962;28;20029;-85
2022/02/09 06:04:17;;;;;;;3.43;1.10;;;5.50;99.90;;;;;;5028862;28;20083;-85
2022/02/09 06:06:46;;;;;;;3.20;0.77;;;5.50;99.90;;;;;;5031483;28;20079;-86
2022/02/09 06:09:15;;;;;;;2.60;0.80;;;5.50;99.90;;;;;;5031958;28;20029;-86
2022/02/09 06:11:49;;;;;;;4.50;0.90;;;5.40;99.90;;;;;;5027107;28;20032;-86
2022/02/09 06:14:34;;;;;;;3.67;0.90;;;5.50;99.90;;;;;;5033861;28;20061;-86
2022/02/09 06:19:53;;;;;;;2.57;0.87;;;5.40;99.90;;;;;;5033424;28;20033;-86
2022/02/09 06:22:28;;;;;;;2.00;0.83;;;5.30;99.90;;;;;;5027464;28;20030;-84
2022/02/09 06:24:59;;;;;;;3.73;1.30;;;5.40;99.90;;;;;;5011896;28;20057;-86
2022/02/09 06:27:30;;;;;;;6.30;1.10;;;5.40;99.90;;;;;;5012641;28;20034;-85
2022/02/09 06:29:56;;;;;;;2.43;0.60;;;5.30;99.90;;;;;;5021963;28;20287;-85
2022/02/09 06:32:26;;;;;;;4.83;1.50;;;5.30;99.90;;;;;;5030575;28;20029;-85
2022/02/09 06:34:57;;;;;;;4.50;1.00;;;5.30;99.90;;;;;;5033042;28;20033;-85
2022/02/09 06:37:44;;;;;;;3.97;0.87;;;5.30;99.90;;;;;;5032973;28;20091;-85
2022/02/09 06:40:31;;;;;;;6.97;1.27;;;5.30;99.90;;;;;;5032458;28;20030;-85
2022/02/09 06:43:02;;;;;;;9.43;1.80;;;5.30;99.90;;;;;;5017799;28;20446;-85
2022/02/09 06:45:32;;;;;;;4.37;0.80;;;5.30;99.90;;;;;;5011915;28;20022;-85
2022/02/09 06:47:58;;;;;;;4.20;0.80;;;5.20;99.90;;;;;;5013510;28;20037;-85
2022/02/09 06:50:38;;;;;;;3.87;1.23;;;5.20;99.90;;;;;;5028389;28;20368;-85
2022/02/09 06:53:15;;;;;;;4.03;1.03;;;5.10;99.90;;;;;;5030481;28;20072;-85
2022/02/09 06:56:00;;;;;;;2.20;0.90;;;5.10;99.90;;;;;;5030898;28;20037;-85
2022/02/09 07:00:59;;;;;;;5.63;1.10;;;5.00;99.90;;;;;;5031468;28;20029;-86
2022/02/09 07:03:25;;;;;;;7.60;1.30;;;5.00;99.90;;;;;;5030630;28;20064;-86
2022/02/09 07:05:51;;;;;;;4.40;1.30;;;4.90;99.90;;;;;;5030246;28;20061;-86
2022/02/09 07:08:17;;;;;;;3.83;1.00;;;4.80;99.90;;;;;;5030410;28;20036;-86
2022/02/09 07:10:42;;;;;;;5.83;1.60;;;4.80;99.90;;;;;;5027644;28;20034;-85
2022/02/09 07:13:08;;;;;;;4.47;1.33;;;4.70;99.90;;;;;;5024286;28;20082;-86
2022/02/09 07:15:40;;;;;;;4.20;1.07;;;4.60;99.90;;;;;;5029978;28;20029;-86
2022/02/09 07:18:10;;;;;;;2.42;0.95;;;4.60;99.90;;;;;;5031413;28;20048;-86
2022/02/09 07:20:46;;;;;;;4.13;1.63;;;4.60;99.90;;;;;;5031099;28;20034;-86
2022/02/09 07:23:22;;;;;;;5.83;1.10;;;4.60;99.90;;;;;;5030800;28;20495;-86
2022/02/09 07:26:07;;;;;;;4.30;1.60;;;4.60;99.90;;;;;;5033159;28;20037;-86
2022/02/09 07:28:41;;;;;;;4.70;1.50;;;4.60;99.90;;;;;;5029885;28;20045;-85
2022/02/09 07:31:17;;;;;;;4.13;1.50;;;4.60;99.90;;;;;;5022467;28;20048;-85
2022/02/09 07:33:50;;;;;;;4.80;1.57;;;4.60;99.90;;;;;;5030720;28;20025;-85
2022/02/09 07:36:19;;;;;;;5.40;1.40;;;4.60;99.90;;;;;;5029602;28;20021;-86
2022/02/09 07:41:20;;;;;;;5.30;1.10;;;4.60;99.90;;;;;;4290381;23;20079;-87
2022/02/09 07:51:41;;;;;;;3.63;1.13;;;4.70;99.90;;;;;;5024870;28;20036;-87
2022/02/09 07:54:08;;;;;;;2.78;0.90;;;4.70;99.90;;;;;;5002166;28;20033;-88
2022/02/09 08:54:10;;;;;;;4.27;1.40;;;6.10;99.90;;;;;;5034730;28;20453;-90
2022/02/09 08:57:16;;;;;;;2.95;0.80;;;6.20;99.90;;;;;;4938467;29;20110;-89
2022/02/09 09:03:52;;;;;;;4.00;1.00;;;6.30;99.90;;;;;;4954968;29;20046;-90
2022/02/09 09:09:53;;;;;;;4.63;0.80;;;6.30;99.90;;;;;;4859488;29;20057;-90
2022/02/09 10:38:59;;;;;;;5.87;0.77;;;8.20;99.90;;;;;;3296683;26;20101;-89
2022/02/09 10:42:10;;;;;;;2.42;0.82;;;8.10;99.90;;;;;;5047613;28;20056;-90
2022/02/09 10:45:36;;;;;;;2.30;0.97;;;8.30;99.90;;;;;;5087828;28;20078;-90
2022/02/09 10:59:35;;;;;;;5.67;1.20;;;8.80;99.90;;;;;;4956316;28;20131;-90
2022/02/09 11:02:11;;;;;;;3.57;0.70;;;8.90;99.90;;;;;;4921678;29;20460;-89
2022/02/09 11:05:12;;;;;;;5.40;1.50;;;9.10;99.90;;;;;;4951782;28;20039;-90
2022/02/09 11:08:06;;;;;;;3.30;0.70;;;9.10;99.90;;;;;;5002202;28;20088;-89
2022/02/09 11:11:03;;;;;;;;;;;;;;;;;;;;;
2022/02/09 11:17:20;;;;;;;2.30;0.50;;;9.30;99.90;;;;;;4993092;28;20031;-88
2022/02/09 11:20:55;;;;;;;2.43;0.60;;;9.30;99.90;;;;;;5027865;28;20068;-87
2022/02/09 11:23:49;;;;;;;2.35;0.60;;;9.30;99.90;;;;;;5024909;28;20032;-87
2022/02/09 11:27:06;;;;;;;2.30;0.70;;;9.40;99.90;;;;;;4997294;28;20495;-88
2022/02/09 11:29:59;;;;;;;7.53;2.77;;;9.50;99.90;;;;;;5008188;28;20091;-88
2022/02/09 11:32:41;;;;;;;4.38;1.48;;;9.70;99.90;;;;;;5011004;28;20029;-89
2022/02/09 11:35:49;;;;;;;6.05;0.93;;;9.70;99.90;;;;;;5059261;28;20044;-87
2022/02/09 11:39:24;;;;;;;2.28;0.73;;;9.80;99.90;;;;;;5052354;28;20060;-87
2022/02/09 12:16:34;;;;;;;2.60;0.73;;;11.00;99.90;;;;;;5075365;28;20062;-90
2022/02/09 12:19:57;;;;;;;1.30;0.40;;;11.20;99.90;;;;;;5052224;28;20054;-91
2022/02/09 12:25:47;;;;;;;1.13;0.25;;;11.50;99.90;;;;;;5050750;28;20028;-91
2022/02/09 12:28:50;;;;;;;1.08;0.38;;;11.50;99.90;;;;;;5072354;28;20056;-92
2022/02/09 12:31:37;;;;;;;0.98;0.38;;;11.50;99.90;;;;;;5072319;28;20490;-90
2022/02/09 12:34:12;;;;;;;1.27;0.30;;;11.60;99.90;;;;;;5076458;28;20405;-91
2022/02/09 12:36:49;;;;;;;2.30;0.80;;;11.70;99.90;;;;;;5092218;28;20447;-91
2022/02/09 12:39:17;;;;;;;2.53;0.60;;;11.70;99.90;;;;;;5092207;28;20064;-91
2022/02/09 12:41:43;;;;;;;2.42;0.40;;;11.80;99.90;;;;;;5093408;28;20025;-90
2022/02/09 12:44:23;;;;;;;1.73;0.45;;;11.70;99.90;;;;;;5091142;28;20036;-90
2022/02/09 12:47:14;;;;;;;1.75;0.55;;;11.80;99.90;;;;;;5092546;28;20028;-91
2022/02/09 12:49:53;;;;;;;2.20;0.52;;;11.80;99.90;;;;;;5090661;28;20051;-91
2022/02/09 12:52:34;;;;;;;1.40;0.20;;;11.80;99.90;;;;;;5091186;28;20067;-91
2022/02/09 12:55:15;;;;;;;0.73;0.20;;;11.80;99.90;;;;;;5092862;28;20035;-91
2022/02/09 12:57:53;;;;;;;2.13;0.63;;;11.80;99.90;;;;;;5089465;28;20346;-89
2022/02/09 13:00:25;;;;;;;2.38;0.60;;;12.00;99.90;;;;;;5092090;28;20024;-90
2022/02/09 13:02:51;;;;;;;2.45;0.95;;;11.90;99.90;;;;;;5090014;28;20513;-90
2022/02/09 13:05:20;;;;;;;1.30;0.47;;;11.90;99.90;;;;;;5089055;28;20064;-90
2022/02/09 13:07:57;;;;;;;2.38;0.50;;;12.00;99.90;;;;;;5075754;28;20031;-90
2022/02/09 13:10:39;;;;;;;2.78;0.70;;;12.00;99.90;;;;;;5083298;28;20048;-89
2022/02/09 13:13:24;;;;;;;1.98;0.63;;;12.00;99.90;;;;;;5074525;28;20108;-90
2022/02/09 13:16:08;;;;;;;2.00;0.65;;;12.10;99.90;;;;;;5073901;28;20527;-90
2022/02/09 13:51:43;;;;;;;2.85;0.60;;;12.30;99.90;;;;;;5083616;28;20079;-91
2022/02/09 15:21:02;;;;;;;0.85;0.30;;;16.80;97.40;;;;;;5071977;28;20020;-89
2022/02/09 15:23:29;;;;;;;1.25;0.60;;;16.90;97.50;;;;;;5057765;28;20025;-87
2022/02/09 15:25:59;;;;;;;2.22;0.50;;;16.90;96.70;;;;;;5028356;28;20498;-88
2022/02/09 15:28:25;;;;;;;1.90;0.57;;;16.70;96.50;;;;;;5054621;28;20036;-88
2022/02/09 15:31:05;;;;;;;2.05;0.45;;;16.50;96.30;;;;;;5037618;28;20025;-87
2022/02/09 15:33:46;;;;;;;1.65;0.40;;;15.80;97.30;;;;;;5035807;28;20529;-88
2022/02/09 15:36:15;;;;;;;1.67;0.40;;;15.00;98.40;;;;;;5044641;28;20566;-89
2022/02/09 15:38:59;;;;;;;0.80;0.30;;;14.20;99.60;;;;;;5055347;28;20016;-87
2022/02/09 15:41:32;;;;;;;1.15;0.40;;;13.70;99.90;;;;;;5044744;28;20108;-88
2022/02/09 16:08:41;;;;;;;1.30;0.50;;;11.30;99.90;;;;;;5069377;28;20035;-89
2022/02/09 16:21:46;;;;;;;2.95;0.75;;;11.00;99.90;;;;;;5067666;28;20025;-87
2022/02/09 16:24:25;;;;;;;2.20;0.80;;;10.80;99.90;;;;;;5047991;28;20093;-87
2022/02/09 16:36:22;;;;;;;1.10;0.50;;;10.40;99.90;;;;;;5056352;28;20394;-89
2022/02/09 16:46:18;;;;;;;2.22;0.65;;;10.10;99.90;;;;;;5058085;28;20032;-88
2022/02/09 16:48:57;;;;;;;2.47;0.50;;;9.90;99.90;;;;;;5055107;28;20093;-89
2022/02/09 16:51:24;;;;;;;2.17;0.60;;;9.90;99.90;;;;;;5070084;28;20086;-88
2022/02/09 17:18:59;;;;;;;3.00;0.73;;;8.90;99.90;;;;;;5071943;28;20033;-89
2022/02/09 17:21:26;;;;;;;4.78;0.95;;;8.80;99.90;;;;;;5070025;28;20474;-89
2022/02/09 17:23:58;;;;;;;1.98;0.95;;;8.70;99.90;;;;;;5052936;28;20033;-88
2022/02/09 17:26:32;;;;;;;1.95;0.70;;;8.70;99.90;;;;;;5034187;28;20044;-88
2022/02/09 17:29:05;;;;;;;3.10;1.20;;;8.80;99.90;;;;;;5059721;28;20029;-87
2022/02/09 17:31:49;;;;;;;1.10;0.50;;;8.90;99.90;;;;;;5069461;28;20020;-89
2022/02/09 17:55:54;;;;;;;2.47;0.70;;;8.40;99.90;;;;;;5060622;28;20051;-89
2022/02/09 17:58:26;;;;;;;3.67;0.82;;;8.30;99.90;;;;;;5041229;28;20032;-89
2022/02/09 18:01:04;;;;;;;2.88;0.90;;;8.20;99.90;;;;;;5062228;28;20479;-89
2022/02/09 18:03:36;;;;;;;4.05;0.80;;;8.10;99.90;;;;;;5035532;28;20079;-90
2022/02/09 18:14:46;;;;;;;4.70;0.50;;;7.70;99.90;;;;;;5069141;28;20040;-89
2022/02/09 18:26:40;;;;;;;4.20;1.03;;;7.50;99.90;;;;;;5061105;28;20171;-89
2022/02/09 18:42:57;;;;;;;4.78;2.08;;;7.10;99.90;;;;;;5061275;28;20389;-90
2022/02/09 18:45:44;;;;;;;7.20;2.20;;;7.10;99.90;;;;;;5043460;28;20029;-88
2022/02/09 19:04:40;;;;;;;2.53;1.17;;;6.80;99.90;;;;;;5062496;28;20394;-90
2022/02/09 19:30:00;;;;;;;5.33;1.50;;;6.50;99.90;;;;;;5065575;28;20029;-88
2022/02/09 19:32:20;;;;;;;7.83;2.13;;;6.40;99.90;;;;;;5050788;28;20090;-88
2022/02/09 19:48:24;;;;;;;4.63;1.67;;;6.20;99.90;;;;;;5062455;28;20090;-88
2022/02/09 19:51:10;;;;;;;6.47;1.53;;;6.10;99.90;;;;;;5047187;28;20153;-87
2022/02/09 19:53:45;;;;;;;4.37;1.77;;;6.10;99.90;;;;;;5066212;28;20025;-87
2022/02/09 20:01:34;;;;;;;2.77;1.30;;;6.00;99.90;;;;;;5057625;28;20049;-88
2022/02/09 20:04:27;;;;;;;3.73;1.10;;;6.00;99.90;;;;;;5049688;28;20041;-88
2022/02/09 20:06:57;;;;;;;3.40;1.20;;;6.00;99.90;;;;;;5045794;28;20490;-88
2022/02/09 20:09:38;;;;;;;5.67;1.67;;;6.00;99.90;;;;;;5039800;28;20025;-87
2022/02/09 20:12:17;;;;;;;;;;;;;;;;;;;;;
2022/02/09 20:14:49;;;;;;;4.57;1.37;;;5.90;99.90;;;;;;5039756;28;20097;-88
2022/02/09 20:17:15;;;;;;;4.97;1.40;;;5.80;99.90;;;;;;5039589;28;20037;-87
2022/02/09 20:19:47;;;;;;;4.13;1.00;;;5.70;99.90;;;;;;5038087;28;20026;-88
2022/02/09 20:22:16;;;;;;;3.55;1.27;;;5.70;99.90;;;;;;5039653;28;20406;-87
2022/02/09 20:24:44;;;;;;;3.57;1.30;;;5.70;99.90;;;;;;5035241;28;20059;-87
2022/02/09 20:27:14;;;;;;;2.10;0.90;;;5.80;99.90;;;;;;5037163;28;20040;-87
2022/02/09 20:29:40;;;;;;;3.10;1.00;;;6.00;99.90;;;;;;5033338;28;20624;-88
2022/02/09 20:32:16;;;;;;;4.97;1.07;;;5.80;99.90;;;;;;5035253;28;20034;-86
2022/02/09 20:35:04;;;;;;;2.37;1.10;;;5.90;99.90;;;;;;5037262;28;20017;-87
2022/02/09 20:37:36;;;;;;;4.07;1.30;;;5.80;99.90;;;;;;5035959;28;20037;-87
2022/02/09 20:40:08;;;;;;;3.00;0.98;;;5.90;99.90;;;;;;5035952;28;20109;-87
2022/02/09 20:42:38;;;;;;;5.57;1.40;;;5.80;99.90;;;;;;5037854;28;20039;-88
2022/02/09 20:45:20;;;;;;;3.07;1.10;;;5.80;99.90;;;;;;5043492;28;20088;-87
2022/02/09 20:47:48;;;;;;;3.28;1.10;;;5.90;99.90;;;;;;5034057;28;20026;-88
2022/02/09 20:50:13;;;;;;;2.07;0.77;;;5.80;99.90;;;;;;5038047;28;20033;-87
2022/02/09 20:52:39;;;;;;;4.03;1.33;;;5.80;99.90;;;;;;5038681;28;20026;-87
2022/02/09 20:55:05;;;;;;;4.03;1.17;;;5.70;99.90;;;;;;5035916;28;20030;-87
2022/02/09 20:57:33;;;;;;;3.17;1.13;;;5.70;99.90;;;;;;5037623;28;20077;-87
2022/02/09 21:00:07;;;;;;;6.70;1.57;;;5.60;99.90;;;;;;5036409;28;20055;-87
2022/02/09 21:02:50;;;;;;;2.30;0.90;;;5.60;99.90;;;;;;5022743;28;20037;-87
2022/02/09 21:05:36;;;;;;;4.67;1.10;;;5.50;99.90;;;;;;5028405;28;20040;-88
2022/02/09 21:13:47;;;;;;;2.90;1.10;;;5.40;99.90;;;;;;5034546;28;20064;-87
2022/02/09 21:16:22;;;;;;;2.60;1.20;;;5.40;99.90;;;;;;5035912;28;20018;-87
2022/02/09 21:32:29;;;;;;;4.77;1.17;;;5.20;99.90;;;;;;5040493;28;20037;-86
2022/02/09 21:45:52;;;;;;;5.27;1.60;;;5.10;99.90;;;;;;5032447;28;20029;-87
2022/02/09 21:53:48;;;;;;;4.43;1.50;;;5.00;99.90;;;;;;5039307;28;20030;-87
2022/02/09 21:56:36;;;;;;;5.17;1.40;;;4.90;99.90;;;;;;5039430;28;20112;-87
2022/02/09 22:27:55;;;;;;;4.70;1.80;;;4.60;99.90;;;;;;5038001;28;20038;-87
2022/02/09 22:56:41;;;;;;;7.33;1.77;;;4.50;99.90;;;;;;5022005;28;20055;-88
2022/02/09 22:59:15;;;;;;;3.40;1.30;;;4.40;99.90;;;;;;5020017;28;20542;-87
2022/02/09 23:01:49;;;;;;;5.67;1.57;;;4.40;99.90;;;;;;5035813;28;20025;-87
2022/02/09 23:09:38;;;;;;;4.37;1.43;;;4.40;99.90;;;;;;5041037;28;20060;-87
2022/02/09 23:12:13;;;;;;;4.40;1.60;;;4.40;99.90;;;;;;5042056;28;20060;-87
2022/02/09 23:17:48;;;;;;;3.73;1.37;;;4.40;99.90;;;;;;5041742;28;20395;-87
